sensor_id;sensor_type;location;lat;lon;timestamp;P1;durP1;ratioP1;P2;durP2;ratioP2
11582;SDS011;34299;50.820;4.548;2022-09-20T00:00:38;2.10;;;0.80;;
11582;SDS011;34299;50.820;4.548;2022-09-20T00:03:06;1.50;;;1.10;;
11582;SDS011;34299;50.820;4.548;2022-09-20T00:05:33;0.80;;;0.80;;
11582;SDS011;34299;50.820;4.548;2022-09-20T00:08:01;1.80;;;1.10;;
11582;SDS011;34299;50.820;4.548;2022-09-20T00:10:28;1.13;;;0.70;;
11582;SDS011;34299;50.820;4.548;2022-09-20T00:12:58;0.70;;;0.70;;
11582;SDS011;34299;50.820;4.548;2022-09-20T00:15:26;0.93;;;0.60;;
11582;SDS011;34299;50.820;4.548;2022-09-20T00:17:54;0.70;;;0.70;;
11582;SDS011;34299;50.820;4.548;2022-09-20T00:20:21;0.77;;;0.70;;
11582;SDS011;34299;50.820;4.548;2022-09-20T00:22:48;1.60;;;0.80;;
11582;SDS011;34299;50.820;4.548;2022-09-20T00:25:16;1.87;;;0.60;;
11582;SDS011;34299;50.820;4.548;2022-09-20T00:27:43;1.60;;;0.80;;
11582;SDS011;34299;50.820;4.548;2022-09-20T00:30:13;2.47;;;0.80;;
11582;SDS011;34299;50.820;4.548;2022-09-20T00:32:41;3.93;;;1.00;;
11582;SDS011;34299;50.820;4.548;2022-09-20T00:35:08;2.03;;;0.80;;
11582;SDS011;34299;50.820;4.548;2022-09-20T00:37:36;1.20;;;0.90;;
11582;SDS011;34299;50.820;4.548;2022-09-20T00:40:04;1.77;;;1.00;;
11582;SDS011;34299;50.820;4.548;2022-09-20T00:42:32;2.20;;;0.70;;
11582;SDS011;34299;50.820;4.548;2022-09-20T00:44:59;1.93;;;0.67;;
11582;SDS011;34299;50.820;4.548;2022-09-20T00:47:32;1.53;;;0.90;;
11582;SDS011;34299;50.820;4.548;2022-09-20T00:50:04;2.40;;;1.03;;
11582;SDS011;34299;50.820;4.548;2022-09-20T00:52:33;0.90;;;0.80;;
11582;SDS011;34299;50.820;4.548;2022-09-20T00:55:02;1.63;;;0.73;;
11582;SDS011;34299;50.820;4.548;2022-09-20T00:57:32;1.53;;;1.43;;
11582;SDS011;34299;50.820;4.548;2022-09-20T01:00:01;1.13;;;1.03;;
11582;SDS011;34299;50.820;4.548;2022-09-20T01:02:29;8.33;;;1.37;;
11582;SDS011;34299;50.820;4.548;2022-09-20T01:04:57;1.53;;;0.90;;
11582;SDS011;34299;50.820;4.548;2022-09-20T01:07:46;0.73;;;0.73;;
11582;SDS011;34299;50.820;4.548;2022-09-20T01:10:14;3.50;;;1.10;;
11582;SDS011;34299;50.820;4.548;2022-09-20T01:12:42;1.10;;;1.00;;
11582;SDS011;34299;50.820;4.548;2022-09-20T01:15:10;1.97;;;0.70;;
11582;SDS011;34299;50.820;4.548;2022-09-20T01:17:39;2.27;;;0.80;;
11582;SDS011;34299;50.820;4.548;2022-09-20T01:20:17;1.83;;;1.13;;
11582;SDS011;34299;50.820;4.548;2022-09-20T01:22:52;3.13;;;1.10;;
11582;SDS011;34299;50.820;4.548;2022-09-20T01:25:26;2.07;;;1.40;;
11582;SDS011;34299;50.820;4.548;2022-09-20T01:27:58;2.50;;;1.10;;
11582;SDS011;34299;50.820;4.548;2022-09-20T01:30:27;4.90;;;1.30;;
11582;SDS011;34299;50.820;4.548;2022-09-20T01:33:01;3.60;;;1.23;;
11582;SDS011;34299;50.820;4.548;2022-09-20T01:35:29;2.83;;;1.10;;
11582;SDS011;34299;50.820;4.548;2022-09-20T01:38:05;4.43;;;1.43;;
11582;SDS011;34299;50.820;4.548;2022-09-20T01:40:38;1.57;;;1.47;;
11582;SDS011;34299;50.820;4.548;2022-09-20T01:43:14;3.47;;;1.37;;
11582;SDS011;34299;50.820;4.548;2022-09-20T01:45:45;2.37;;;1.20;;
11582;SDS011;34299;50.820;4.548;2022-09-20T01:48:14;2.40;;;1.70;;
11582;SDS011;34299;50.820;4.548;2022-09-20T01:50:48;2.40;;;1.33;;
11582;SDS011;34299;50.820;4.548;2022-09-20T01:58:54;3.23;;;1.40;;
11582;SDS011;34299;50.820;4.548;2022-09-20T02:01:35;5.13;;;1.50;;
11582;SDS011;34299;50.820;4.548;2022-09-20T02:04:24;1.87;;;1.37;;
11582;SDS011;34299;50.820;4.548;2022-09-20T02:06:57;3.17;;;1.47;;
11582;SDS011;34299;50.820;4.548;2022-09-20T02:09:54;3.70;;;1.57;;
11582;SDS011;34299;50.820;4.548;2022-09-20T02:12:37;3.23;;;1.40;;
11582;SDS011;34299;50.820;4.548;2022-09-20T02:15:11;4.90;;;1.30;;
11582;SDS011;34299;50.820;4.548;2022-09-20T02:17:41;3.97;;;1.70;;
11582;SDS011;34299;50.820;4.548;2022-09-20T02:20:29;2.27;;;1.40;;
11582;SDS011;34299;50.820;4.548;2022-09-20T02:23:07;3.33;;;1.23;;
11582;SDS011;34299;50.820;4.548;2022-09-20T02:25:47;2.50;;;1.67;;
11582;SDS011;34299;50.820;4.548;2022-09-20T02:28:21;3.23;;;1.70;;
11582;SDS011;34299;50.820;4.548;2022-09-20T02:30:54;3.93;;;1.43;;
11582;SDS011;34299;50.820;4.548;2022-09-20T02:33:25;4.53;;;1.60;;
11582;SDS011;34299;50.820;4.548;2022-09-20T02:36:03;2.00;;;1.43;;
11582;SDS011;34299;50.820;4.548;2022-09-20T02:38:40;3.10;;;1.67;;
11582;SDS011;34299;50.820;4.548;2022-09-20T02:41:13;3.60;;;2.00;;
11582;SDS011;34299;50.820;4.548;2022-09-20T02:43:45;5.63;;;1.70;;
11582;SDS011;34299;50.820;4.548;2022-09-20T02:46:21;2.63;;;1.87;;
11582;SDS011;34299;50.820;4.548;2022-09-20T02:48:53;3.20;;;1.80;;
11582;SDS011;34299;50.820;4.548;2022-09-20T02:51:23;4.77;;;1.73;;
11582;SDS011;34299;50.820;4.548;2022-09-20T02:53:57;4.23;;;2.03;;
11582;SDS011;34299;50.820;4.548;2022-09-20T02:56:29;2.60;;;1.93;;
11582;SDS011;34299;50.820;4.548;2022-09-20T02:59:00;3.17;;;1.90;;
11582;SDS011;34299;50.820;4.548;2022-09-20T03:01:37;2.17;;;1.70;;
11582;SDS011;34299;50.820;4.548;2022-09-20T03:04:10;3.77;;;2.40;;
11582;SDS011;34299;50.820;4.548;2022-09-20T03:06:41;4.10;;;2.60;;
11582;SDS011;34299;50.820;4.548;2022-09-20T03:09:10;3.90;;;2.00;;
11582;SDS011;34299;50.820;4.548;2022-09-20T03:11:42;2.90;;;2.17;;
11582;SDS011;34299;50.820;4.548;2022-09-20T03:14:15;5.97;;;2.70;;
11582;SDS011;34299;50.820;4.548;2022-09-20T03:16:50;5.47;;;2.53;;
11582;SDS011;34299;50.820;4.548;2022-09-20T03:19:28;4.37;;;2.03;;
11582;SDS011;34299;50.820;4.548;2022-09-20T03:21:59;3.73;;;2.20;;
11582;SDS011;34299;50.820;4.548;2022-09-20T03:24:32;4.70;;;2.10;;
11582;SDS011;34299;50.820;4.548;2022-09-20T03:27:06;4.80;;;2.47;;
11582;SDS011;34299;50.820;4.548;2022-09-20T03:29:39;3.97;;;2.50;;
11582;SDS011;34299;50.820;4.548;2022-09-20T03:32:17;3.10;;;2.50;;
11582;SDS011;34299;50.820;4.548;2022-09-20T03:34:52;5.73;;;2.83;;
11582;SDS011;34299;50.820;4.548;2022-09-20T03:37:31;6.53;;;2.47;;
11582;SDS011;34299;50.820;4.548;2022-09-20T03:42:59;3.40;;;2.47;;
11582;SDS011;34299;50.820;4.548;2022-09-20T03:45:35;5.57;;;2.80;;
11582;SDS011;34299;50.820;4.548;2022-09-20T03:48:09;5.40;;;2.70;;
11582;SDS011;34299;50.820;4.548;2022-09-20T03:50:44;5.57;;;2.53;;
11582;SDS011;34299;50.820;4.548;2022-09-20T03:53:32;3.53;;;2.47;;
11582;SDS011;34299;50.820;4.548;2022-09-20T03:56:15;2.83;;;2.50;;
11582;SDS011;34299;50.820;4.548;2022-09-20T03:58:50;4.10;;;2.20;;
11582;SDS011;34299;50.820;4.548;2022-09-20T04:01:28;2.40;;;1.90;;
11582;SDS011;34299;50.820;4.548;2022-09-20T04:04:02;5.30;;;2.20;;
11582;SDS011;34299;50.820;4.548;2022-09-20T04:06:48;6.43;;;2.33;;
11582;SDS011;34299;50.820;4.548;2022-09-20T04:09:28;2.77;;;1.70;;
11582;SDS011;34299;50.820;4.548;2022-09-20T04:11:59;3.43;;;2.00;;
11582;SDS011;34299;50.820;4.548;2022-09-20T04:14:32;3.83;;;1.70;;
11582;SDS011;34299;50.820;4.548;2022-09-20T04:17:02;3.37;;;2.40;;
11582;SDS011;34299;50.820;4.548;2022-09-20T04:19:34;5.30;;;2.13;;
11582;SDS011;34299;50.820;4.548;2022-09-20T04:22:06;4.27;;;1.73;;
11582;SDS011;34299;50.820;4.548;2022-09-20T04:24:36;2.83;;;1.90;;
11582;SDS011;34299;50.820;4.548;2022-09-20T04:27:04;3.67;;;2.10;;
11582;SDS011;34299;50.820;4.548;2022-09-20T04:29:36;2.67;;;1.93;;
11582;SDS011;34299;50.820;4.548;2022-09-20T04:32:10;5.50;;;1.90;;
11582;SDS011;34299;50.820;4.548;2022-09-20T04:34:42;4.77;;;1.30;;
11582;SDS011;34299;50.820;4.548;2022-09-20T04:37:29;4.53;;;1.50;;
11582;SDS011;34299;50.820;4.548;2022-09-20T04:48:27;2.20;;;1.33;;
11582;SDS011;34299;50.820;4.548;2022-09-20T04:54:07;2.13;;;1.13;;
11582;SDS011;34299;50.820;4.548;2022-09-20T04:56:41;3.57;;;1.60;;
11582;SDS011;34299;50.820;4.548;2022-09-20T04:59:16;1.17;;;1.07;;
11582;SDS011;34299;50.820;4.548;2022-09-20T05:13:06;5.77;;;1.93;;
11582;SDS011;34299;50.820;4.548;2022-09-20T05:15:38;4.20;;;1.67;;
11582;SDS011;34299;50.820;4.548;2022-09-20T05:21:03;2.67;;;2.07;;
11582;SDS011;34299;50.820;4.548;2022-09-20T05:26:24;1.77;;;1.37;;
11582;SDS011;34299;50.820;4.548;2022-09-20T05:28:55;2.53;;;1.80;;
11582;SDS011;34299;50.820;4.548;2022-09-20T05:31:28;3.57;;;1.90;;
11582;SDS011;34299;50.820;4.548;2022-09-20T05:34:00;3.13;;;1.57;;
11582;SDS011;34299;50.820;4.548;2022-09-20T05:36:30;3.63;;;2.17;;
11582;SDS011;34299;50.820;4.548;2022-09-20T05:39:06;4.67;;;2.20;;
11582;SDS011;34299;50.820;4.548;2022-09-20T05:41:37;4.40;;;2.73;;
11582;SDS011;34299;50.820;4.548;2022-09-20T05:44:10;4.63;;;2.00;;
11582;SDS011;34299;50.820;4.548;2022-09-20T05:46:44;3.80;;;1.60;;
11582;SDS011;34299;50.820;4.548;2022-09-20T05:49:17;6.60;;;2.23;;
11582;SDS011;34299;50.820;4.548;2022-09-20T05:51:51;7.57;;;2.57;;
11582;SDS011;34299;50.820;4.548;2022-09-20T05:54:26;5.10;;;2.13;;
11582;SDS011;34299;50.820;4.548;2022-09-20T05:57:00;5.17;;;1.90;;
11582;SDS011;34299;50.820;4.548;2022-09-20T05:59:40;4.50;;;2.00;;
11582;SDS011;34299;50.820;4.548;2022-09-20T06:02:23;10.90;;;3.63;;
11582;SDS011;34299;50.820;4.548;2022-09-20T06:04:57;17.07;;;2.63;;
11582;SDS011;34299;50.820;4.548;2022-09-20T06:07:27;20.83;;;4.47;;
11582;SDS011;34299;50.820;4.548;2022-09-20T06:10:11;11.23;;;4.13;;
11582;SDS011;34299;50.820;4.548;2022-09-20T06:12:46;4.33;;;2.27;;
11582;SDS011;34299;50.820;4.548;2022-09-20T06:15:19;2.63;;;2.10;;
11582;SDS011;34299;50.820;4.548;2022-09-20T06:17:51;3.93;;;1.97;;
11582;SDS011;34299;50.820;4.548;2022-09-20T06:20:23;3.13;;;2.07;;
11582;SDS011;34299;50.820;4.548;2022-09-20T06:22:52;7.43;;;2.07;;
11582;SDS011;34299;50.820;4.548;2022-09-20T06:25:21;4.47;;;2.10;;
11582;SDS011;34299;50.820;4.548;2022-09-20T06:27:50;3.90;;;1.83;;
11582;SDS011;34299;50.820;4.548;2022-09-20T06:30:21;5.10;;;2.33;;
11582;SDS011;34299;50.820;4.548;2022-09-20T06:32:57;5.27;;;2.37;;
11582;SDS011;34299;50.820;4.548;2022-09-20T06:35:26;4.37;;;2.10;;
11582;SDS011;34299;50.820;4.548;2022-09-20T06:37:57;1.83;;;1.60;;
11582;SDS011;34299;50.820;4.548;2022-09-20T06:40:47;6.17;;;2.10;;
11582;SDS011;34299;50.820;4.548;2022-09-20T06:43:33;4.40;;;2.53;;
11582;SDS011;34299;50.820;4.548;2022-09-20T06:46:06;2.30;;;2.00;;
11582;SDS011;34299;50.820;4.548;2022-09-20T06:48:33;3.60;;;2.10;;
11582;SDS011;34299;50.820;4.548;2022-09-20T06:51:04;4.97;;;2.43;;
11582;SDS011;34299;50.820;4.548;2022-09-20T06:53:32;6.00;;;2.93;;
11582;SDS011;34299;50.820;4.548;2022-09-20T06:56:01;4.83;;;2.03;;
11582;SDS011;34299;50.820;4.548;2022-09-20T06:58:28;4.80;;;2.30;;
11582;SDS011;34299;50.820;4.548;2022-09-20T07:00:56;7.50;;;2.30;;
11582;SDS011;34299;50.820;4.548;2022-09-20T07:03:25;3.57;;;2.17;;
11582;SDS011;34299;50.820;4.548;2022-09-20T07:05:52;5.03;;;2.00;;
11582;SDS011;34299;50.820;4.548;2022-09-20T07:08:20;5.07;;;2.33;;
11582;SDS011;34299;50.820;4.548;2022-09-20T07:10:47;5.07;;;2.30;;
11582;SDS011;34299;50.820;4.548;2022-09-20T07:13:15;7.17;;;2.53;;
11582;SDS011;34299;50.820;4.548;2022-09-20T07:15:44;3.93;;;1.90;;
11582;SDS011;34299;50.820;4.548;2022-09-20T07:18:12;5.30;;;2.03;;
11582;SDS011;34299;50.820;4.548;2022-09-20T07:20:40;3.30;;;2.00;;
11582;SDS011;34299;50.820;4.548;2022-09-20T07:23:08;6.20;;;2.67;;
11582;SDS011;34299;50.820;4.548;2022-09-20T07:25:35;2.97;;;2.00;;
11582;SDS011;34299;50.820;4.548;2022-09-20T07:28:03;4.87;;;2.27;;
11582;SDS011;34299;50.820;4.548;2022-09-20T07:30:30;3.87;;;1.67;;
11582;SDS011;34299;50.820;4.548;2022-09-20T07:32:58;3.17;;;1.50;;
11582;SDS011;34299;50.820;4.548;2022-09-20T07:35:25;3.67;;;1.80;;
11582;SDS011;34299;50.820;4.548;2022-09-20T07:37:56;7.33;;;2.00;;
11582;SDS011;34299;50.820;4.548;2022-09-20T07:40:23;3.17;;;2.47;;
11582;SDS011;34299;50.820;4.548;2022-09-20T07:42:51;2.63;;;1.60;;
11582;SDS011;34299;50.820;4.548;2022-09-20T07:45:18;4.37;;;2.00;;
11582;SDS011;34299;50.820;4.548;2022-09-20T07:47:45;5.50;;;1.90;;
11582;SDS011;34299;50.820;4.548;2022-09-20T07:50:13;3.67;;;1.90;;
11582;SDS011;34299;50.820;4.548;2022-09-20T07:52:40;2.60;;;1.57;;
11582;SDS011;34299;50.820;4.548;2022-09-20T07:55:09;3.70;;;1.73;;
11582;SDS011;34299;50.820;4.548;2022-09-20T07:57:36;4.03;;;1.73;;
11582;SDS011;34299;50.820;4.548;2022-09-20T08:00:05;3.70;;;1.80;;
11582;SDS011;34299;50.820;4.548;2022-09-20T08:02:32;6.60;;;2.40;;
11582;SDS011;34299;50.820;4.548;2022-09-20T08:04:59;5.60;;;1.90;;
11582;SDS011;34299;50.820;4.548;2022-09-20T08:07:27;3.33;;;1.87;;
11582;SDS011;34299;50.820;4.548;2022-09-20T08:09:54;4.83;;;2.17;;
11582;SDS011;34299;50.820;4.548;2022-09-20T08:12:25;2.83;;;1.90;;
11582;SDS011;34299;50.820;4.548;2022-09-20T08:14:53;4.83;;;2.37;;
11582;SDS011;34299;50.820;4.548;2022-09-20T08:17:20;6.17;;;2.03;;
11582;SDS011;34299;50.820;4.548;2022-09-20T08:19:48;4.63;;;1.90;;
11582;SDS011;34299;50.820;4.548;2022-09-20T08:22:17;3.67;;;1.60;;
11582;SDS011;34299;50.820;4.548;2022-09-20T08:24:44;5.77;;;1.87;;
11582;SDS011;34299;50.820;4.548;2022-09-20T08:27:11;3.03;;;2.07;;
11582;SDS011;34299;50.820;4.548;2022-09-20T08:29:40;4.30;;;2.00;;
11582;SDS011;34299;50.820;4.548;2022-09-20T08:32:07;2.90;;;2.17;;
11582;SDS011;34299;50.820;4.548;2022-09-20T08:34:34;7.43;;;2.30;;
11582;SDS011;34299;50.820;4.548;2022-09-20T08:37:02;3.43;;;1.73;;
11582;SDS011;34299;50.820;4.548;2022-09-20T08:39:29;3.53;;;1.83;;
11582;SDS011;34299;50.820;4.548;2022-09-20T08:41:58;5.93;;;1.70;;
11582;SDS011;34299;50.820;4.548;2022-09-20T08:44:29;2.10;;;1.40;;
11582;SDS011;34299;50.820;4.548;2022-09-20T08:47:02;3.23;;;1.63;;
11582;SDS011;34299;50.820;4.548;2022-09-20T08:49:31;5.20;;;1.87;;
11582;SDS011;34299;50.820;4.548;2022-09-20T08:51:59;3.70;;;1.70;;
11582;SDS011;34299;50.820;4.548;2022-09-20T08:54:27;4.03;;;2.03;;
11582;SDS011;34299;50.820;4.548;2022-09-20T08:56:56;3.60;;;2.07;;
11582;SDS011;34299;50.820;4.548;2022-09-20T08:59:29;3.90;;;1.80;;
11582;SDS011;34299;50.820;4.548;2022-09-20T09:01:57;3.87;;;1.97;;
11582;SDS011;34299;50.820;4.548;2022-09-20T09:04:30;3.80;;;1.93;;
11582;SDS011;34299;50.820;4.548;2022-09-20T09:06:59;7.40;;;2.23;;
11582;SDS011;34299;50.820;4.548;2022-09-20T09:09:27;2.77;;;1.60;;
11582;SDS011;34299;50.820;4.548;2022-09-20T09:11:55;4.00;;;2.13;;
11582;SDS011;34299;50.820;4.548;2022-09-20T09:14:24;4.37;;;2.40;;
11582;SDS011;34299;50.820;4.548;2022-09-20T09:17:09;3.90;;;2.17;;
11582;SDS011;34299;50.820;4.548;2022-09-20T09:19:45;6.50;;;2.90;;
11582;SDS011;34299;50.820;4.548;2022-09-20T09:22:17;6.03;;;2.83;;
11582;SDS011;34299;50.820;4.548;2022-09-20T09:24:44;5.83;;;2.90;;
11582;SDS011;34299;50.820;4.548;2022-09-20T09:27:13;7.47;;;2.57;;
11582;SDS011;34299;50.820;4.548;2022-09-20T09:29:47;4.33;;;2.70;;
11582;SDS011;34299;50.820;4.548;2022-09-20T09:32:19;6.27;;;2.70;;
11582;SDS011;34299;50.820;4.548;2022-09-20T09:34:49;6.37;;;2.50;;
11582;SDS011;34299;50.820;4.548;2022-09-20T09:37:23;5.27;;;2.87;;
11582;SDS011;34299;50.820;4.548;2022-09-20T09:40:04;4.33;;;2.50;;
11582;SDS011;34299;50.820;4.548;2022-09-20T09:42:31;5.63;;;2.60;;
11582;SDS011;34299;50.820;4.548;2022-09-20T09:45:09;8.57;;;2.70;;
11582;SDS011;34299;50.820;4.548;2022-09-20T09:47:36;4.57;;;2.20;;
11582;SDS011;34299;50.820;4.548;2022-09-20T09:50:08;6.80;;;3.67;;
11582;SDS011;34299;50.820;4.548;2022-09-20T09:52:55;3.17;;;2.23;;
11582;SDS011;34299;50.820;4.548;2022-09-20T09:55:23;4.07;;;2.77;;
11582;SDS011;34299;50.820;4.548;2022-09-20T09:57:52;7.97;;;2.83;;
11582;SDS011;34299;50.820;4.548;2022-09-20T10:00:24;10.80;;;3.07;;
11582;SDS011;34299;50.820;4.548;2022-09-20T10:02:59;3.67;;;2.43;;
11582;SDS011;34299;50.820;4.548;2022-09-20T10:05:30;5.70;;;2.63;;
11582;SDS011;34299;50.820;4.548;2022-09-20T10:08:03;7.90;;;2.70;;
11582;SDS011;34299;50.820;4.548;2022-09-20T10:10:34;8.67;;;2.93;;
11582;SDS011;34299;50.820;4.548;2022-09-20T10:13:10;3.13;;;2.60;;
11582;SDS011;34299;50.820;4.548;2022-09-20T10:15:43;4.00;;;2.90;;
11582;SDS011;34299;50.820;4.548;2022-09-20T10:18:14;5.63;;;2.83;;
11582;SDS011;34299;50.820;4.548;2022-09-20T10:23:31;4.83;;;2.60;;
11582;SDS011;34299;50.820;4.548;2022-09-20T10:26:02;4.93;;;2.10;;
11582;SDS011;34299;50.820;4.548;2022-09-20T10:28:37;3.90;;;1.77;;
11582;SDS011;34299;50.820;4.548;2022-09-20T10:31:15;4.70;;;1.77;;
11582;SDS011;34299;50.820;4.548;2022-09-20T10:33:46;3.50;;;2.00;;
11582;SDS011;34299;50.820;4.548;2022-09-20T10:36:19;3.30;;;2.00;;
11582;SDS011;34299;50.820;4.548;2022-09-20T10:38:52;3.17;;;1.80;;
11582;SDS011;34299;50.820;4.548;2022-09-20T10:44:28;2.20;;;1.13;;
11582;SDS011;34299;50.820;4.548;2022-09-20T10:47:00;2.67;;;1.30;;
11582;SDS011;34299;50.820;4.548;2022-09-20T10:49:34;2.77;;;1.20;;
11582;SDS011;34299;50.820;4.548;2022-09-20T10:54:52;3.20;;;1.00;;
11582;SDS011;34299;50.820;4.548;2022-09-20T10:57:27;3.10;;;1.10;;
11582;SDS011;34299;50.820;4.548;2022-09-20T11:00:03;9.77;;;1.40;;
11582;SDS011;34299;50.820;4.548;2022-09-20T11:02:37;1.53;;;0.97;;
11582;SDS011;34299;50.820;4.548;2022-09-20T11:05:14;5.87;;;1.30;;
11582;SDS011;34299;50.820;4.548;2022-09-20T11:07:45;1.77;;;1.30;;
11582;SDS011;34299;50.820;4.548;2022-09-20T11:10:19;2.13;;;1.27;;
11582;SDS011;34299;50.820;4.548;2022-09-20T11:12:48;2.43;;;1.17;;
11582;SDS011;34299;50.820;4.548;2022-09-20T11:15:18;3.53;;;1.00;;
11582;SDS011;34299;50.820;4.548;2022-09-20T11:17:48;2.90;;;1.13;;
11582;SDS011;34299;50.820;4.548;2022-09-20T11:20:19;1.87;;;1.20;;
11582;SDS011;34299;50.820;4.548;2022-09-20T11:22:48;3.30;;;1.20;;
11582;SDS011;34299;50.820;4.548;2022-09-20T11:25:20;3.37;;;1.00;;
11582;SDS011;34299;50.820;4.548;2022-09-20T11:27:50;3.43;;;1.10;;
11582;SDS011;34299;50.820;4.548;2022-09-20T11:30:19;6.60;;;0.80;;
11582;SDS011;34299;50.820;4.548;2022-09-20T11:32:48;3.10;;;1.03;;
11582;SDS011;34299;50.820;4.548;2022-09-20T11:35:20;1.73;;;0.80;;
11582;SDS011;34299;50.820;4.548;2022-09-20T11:37:51;1.83;;;1.10;;
11582;SDS011;34299;50.820;4.548;2022-09-20T11:40:24;1.87;;;0.80;;
11582;SDS011;34299;50.820;4.548;2022-09-20T11:42:52;5.00;;;1.40;;
11582;SDS011;34299;50.820;4.548;2022-09-20T11:45:22;7.77;;;1.70;;
11582;SDS011;34299;50.820;4.548;2022-09-20T11:47:50;1.30;;;1.00;;
11582;SDS011;34299;50.820;4.548;2022-09-20T11:50:32;1.97;;;0.70;;
11582;SDS011;34299;50.820;4.548;2022-09-20T11:53:05;1.50;;;0.90;;
11582;SDS011;34299;50.820;4.548;2022-09-20T11:55:42;1.17;;;0.77;;
11582;SDS011;34299;50.820;4.548;2022-09-20T11:58:14;2.83;;;1.07;;
11582;SDS011;34299;50.820;4.548;2022-09-20T12:00:46;2.70;;;0.90;;
11582;SDS011;34299;50.820;4.548;2022-09-20T12:03:21;5.10;;;1.20;;
11582;SDS011;34299;50.820;4.548;2022-09-20T12:05:55;1.80;;;1.00;;
11582;SDS011;34299;50.820;4.548;2022-09-20T12:08:23;11.10;;;1.30;;
11582;SDS011;34299;50.820;4.548;2022-09-20T12:10:57;2.17;;;1.00;;
11582;SDS011;34299;50.820;4.548;2022-09-20T12:13:28;7.13;;;1.97;;
11582;SDS011;34299;50.820;4.548;2022-09-20T12:15:57;2.27;;;1.00;;
11582;SDS011;34299;50.820;4.548;2022-09-20T12:18:26;3.63;;;1.03;;
11582;SDS011;34299;50.820;4.548;2022-09-20T12:21:00;4.83;;;1.30;;
11582;SDS011;34299;50.820;4.548;2022-09-20T12:28:57;4.77;;;1.30;;
11582;SDS011;34299;50.820;4.548;2022-09-20T12:31:37;2.40;;;1.20;;
11582;SDS011;34299;50.820;4.548;2022-09-20T12:39:32;4.67;;;1.20;;
11582;SDS011;34299;50.820;4.548;2022-09-20T12:42:00;2.50;;;1.10;;
11582;SDS011;34299;50.820;4.548;2022-09-20T12:44:31;4.00;;;1.30;;
11582;SDS011;34299;50.820;4.548;2022-09-20T12:46:59;3.23;;;1.20;;
11582;SDS011;34299;50.820;4.548;2022-09-20T12:49:38;4.93;;;1.30;;
11582;SDS011;34299;50.820;4.548;2022-09-20T12:52:31;1.73;;;1.00;;
11582;SDS011;34299;50.820;4.548;2022-09-20T12:55:30;1.73;;;0.90;;
11582;SDS011;34299;50.820;4.548;2022-09-20T12:57:59;2.87;;;1.13;;
11582;SDS011;34299;50.820;4.548;2022-09-20T13:00:30;2.70;;;1.17;;
11582;SDS011;34299;50.820;4.548;2022-09-20T13:03:00;3.93;;;1.07;;
11582;SDS011;34299;50.820;4.548;2022-09-20T13:05:36;4.73;;;1.30;;
11582;SDS011;34299;50.820;4.548;2022-09-20T13:08:09;1.70;;;1.07;;
11582;SDS011;34299;50.820;4.548;2022-09-20T13:10:39;1.73;;;0.90;;
11582;SDS011;34299;50.820;4.548;2022-09-20T13:13:27;2.33;;;1.13;;
11582;SDS011;34299;50.820;4.548;2022-09-20T13:15:56;1.70;;;0.80;;
11582;SDS011;34299;50.820;4.548;2022-09-20T13:18:25;1.97;;;1.20;;
11582;SDS011;34299;50.820;4.548;2022-09-20T13:20:53;1.47;;;0.97;;
11582;SDS011;34299;50.820;4.548;2022-09-20T13:23:22;2.10;;;1.30;;
11582;SDS011;34299;50.820;4.548;2022-09-20T13:25:51;1.83;;;1.00;;
11582;SDS011;34299;50.820;4.548;2022-09-20T13:28:31;3.60;;;1.27;;
11582;SDS011;34299;50.820;4.548;2022-09-20T13:31:19;1.67;;;1.20;;
11582;SDS011;34299;50.820;4.548;2022-09-20T13:33:48;2.33;;;1.23;;
11582;SDS011;34299;50.820;4.548;2022-09-20T13:36:16;3.03;;;1.20;;
11582;SDS011;34299;50.820;4.548;2022-09-20T13:38:45;1.67;;;1.30;;
11582;SDS011;34299;50.820;4.548;2022-09-20T13:41:13;2.87;;;1.20;;
11582;SDS011;34299;50.820;4.548;2022-09-20T13:43:42;2.40;;;1.20;;
11582;SDS011;34299;50.820;4.548;2022-09-20T13:46:10;1.53;;;1.20;;
11582;SDS011;34299;50.820;4.548;2022-09-20T13:48:38;2.63;;;1.20;;
11582;SDS011;34299;50.820;4.548;2022-09-20T13:51:14;4.13;;;1.67;;
11582;SDS011;34299;50.820;4.548;2022-09-20T13:53:42;1.27;;;1.10;;
11582;SDS011;34299;50.820;4.548;2022-09-20T13:56:13;2.83;;;1.37;;
11582;SDS011;34299;50.820;4.548;2022-09-20T13:58:42;3.70;;;1.20;;
11582;SDS011;34299;50.820;4.548;2022-09-20T14:01:18;2.93;;;1.17;;
11582;SDS011;34299;50.820;4.548;2022-09-20T14:03:48;4.30;;;1.57;;
11582;SDS011;34299;50.820;4.548;2022-09-20T14:06:16;1.90;;;1.00;;
11582;SDS011;34299;50.820;4.548;2022-09-20T14:08:44;3.23;;;1.60;;
11582;SDS011;34299;50.820;4.548;2022-09-20T14:11:13;2.63;;;1.30;;
11582;SDS011;34299;50.820;4.548;2022-09-20T14:13:42;2.67;;;1.10;;
11582;SDS011;34299;50.820;4.548;2022-09-20T14:16:09;3.03;;;1.00;;
11582;SDS011;34299;50.820;4.548;2022-09-20T14:18:37;1.63;;;1.20;;
11582;SDS011;34299;50.820;4.548;2022-09-20T14:21:07;3.37;;;1.50;;
11582;SDS011;34299;50.820;4.548;2022-09-20T14:23:47;3.40;;;1.23;;
11582;SDS011;34299;50.820;4.548;2022-09-20T14:26:22;4.40;;;1.40;;
11582;SDS011;34299;50.820;4.548;2022-09-20T14:28:50;1.33;;;1.07;;
11582;SDS011;34299;50.820;4.548;2022-09-20T14:31:18;4.60;;;1.50;;
11582;SDS011;34299;50.820;4.548;2022-09-20T14:33:47;4.00;;;1.37;;
11582;SDS011;34299;50.820;4.548;2022-09-20T14:36:18;2.97;;;1.00;;
11582;SDS011;34299;50.820;4.548;2022-09-20T14:38:45;2.03;;;1.13;;
11582;SDS011;34299;50.820;4.548;2022-09-20T14:41:13;2.57;;;1.03;;
11582;SDS011;34299;50.820;4.548;2022-09-20T14:43:52;2.83;;;1.10;;
11582;SDS011;34299;50.820;4.548;2022-09-20T14:46:26;0.90;;;0.90;;
11582;SDS011;34299;50.820;4.548;2022-09-20T14:48:54;1.27;;;0.90;;
11582;SDS011;34299;50.820;4.548;2022-09-20T14:51:43;1.70;;;1.00;;
11582;SDS011;34299;50.820;4.548;2022-09-20T14:56:53;3.47;;;0.90;;
11582;SDS011;34299;50.820;4.548;2022-09-20T14:59:25;4.50;;;1.30;;
11582;SDS011;34299;50.820;4.548;2022-09-20T15:01:55;2.90;;;0.80;;
11582;SDS011;34299;50.820;4.548;2022-09-20T15:04:23;1.80;;;1.07;;
11582;SDS011;34299;50.820;4.548;2022-09-20T15:06:54;2.90;;;1.10;;
11582;SDS011;34299;50.820;4.548;2022-09-20T15:09:21;1.57;;;0.73;;
11582;SDS011;34299;50.820;4.548;2022-09-20T15:11:57;1.33;;;1.00;;
11582;SDS011;34299;50.820;4.548;2022-09-20T15:14:26;3.90;;;0.90;;
11582;SDS011;34299;50.820;4.548;2022-09-20T15:16:53;2.87;;;1.00;;
11582;SDS011;34299;50.820;4.548;2022-09-20T15:19:20;1.37;;;1.00;;
11582;SDS011;34299;50.820;4.548;2022-09-20T15:21:48;2.33;;;1.13;;
11582;SDS011;34299;50.820;4.548;2022-09-20T15:24:16;2.70;;;1.10;;
11582;SDS011;34299;50.820;4.548;2022-09-20T15:26:44;1.77;;;0.80;;
11582;SDS011;34299;50.820;4.548;2022-09-20T15:29:13;3.27;;;0.97;;
11582;SDS011;34299;50.820;4.548;2022-09-20T15:31:41;1.97;;;1.00;;
11582;SDS011;34299;50.820;4.548;2022-09-20T15:34:09;3.70;;;1.20;;
11582;SDS011;34299;50.820;4.548;2022-09-20T15:36:37;1.33;;;0.60;;
11582;SDS011;34299;50.820;4.548;2022-09-20T15:39:04;1.70;;;1.30;;
11582;SDS011;34299;50.820;4.548;2022-09-20T15:41:34;2.90;;;1.20;;
11582;SDS011;34299;50.820;4.548;2022-09-20T15:44:01;3.90;;;1.27;;
11582;SDS011;34299;50.820;4.548;2022-09-20T15:46:29;1.33;;;1.00;;
11582;SDS011;34299;50.820;4.548;2022-09-20T15:48:56;1.93;;;0.90;;
11582;SDS011;34299;50.820;4.548;2022-09-20T15:51:25;2.70;;;1.30;;
11582;SDS011;34299;50.820;4.548;2022-09-20T15:53:54;2.00;;;1.30;;
11582;SDS011;34299;50.820;4.548;2022-09-20T15:56:25;4.03;;;1.13;;
11582;SDS011;34299;50.820;4.548;2022-09-20T15:58:54;2.97;;;1.10;;
11582;SDS011;34299;50.820;4.548;2022-09-20T16:01:23;3.17;;;1.30;;
11582;SDS011;34299;50.820;4.548;2022-09-20T16:03:50;1.93;;;1.03;;
11582;SDS011;34299;50.820;4.548;2022-09-20T16:06:18;1.40;;;1.00;;
11582;SDS011;34299;50.820;4.548;2022-09-20T16:08:45;3.60;;;1.20;;
11582;SDS011;34299;50.820;4.548;2022-09-20T16:11:13;1.47;;;0.87;;
11582;SDS011;34299;50.820;4.548;2022-09-20T16:13:40;2.70;;;0.90;;